createdAt,value
2023-07-18T00:00:38.799Z,99.90
2023-07-18T00:03:07.970Z,99.90
2023-07-18T00:05:37.394Z,99.90
2023-07-18T00:08:06.468Z,99.90
2023-07-18T00:10:35.328Z,99.90
2023-07-18T00:13:05.496Z,99.90
2023-07-18T00:15:35.989Z,99.90
2023-07-18T00:18:04.904Z,99.90
2023-07-18T00:20:33.829Z,99.90
2023-07-18T00:23:02.729Z,99.90
2023-07-18T00:25:31.630Z,99.90
2023-07-18T00:28:00.473Z,99.90
2023-07-18T00:30:29.345Z,99.90
2023-07-18T00:32:59.761Z,99.90
2023-07-18T00:35:29.423Z,99.90
2023-07-18T00:37:58.475Z,99.90
2023-07-18T00:40:27.442Z,99.90
2023-07-18T00:42:56.730Z,99.90
2023-07-18T00:45:26.027Z,99.90
2023-07-18T00:47:55.142Z,99.90
2023-07-18T00:50:25.594Z,99.90
2023-07-18T00:52:56.263Z,99.90
2023-07-18T00:55:25.295Z,99.90
2023-07-18T00:57:56.121Z,99.90
2023-07-18T01:00:24.956Z,99.90
2023-07-18T01:02:54.680Z,99.90
2023-07-18T01:05:25.332Z,99.90
2023-07-18T01:07:54.143Z,99.90
2023-07-18T01:10:25.592Z,99.90
2023-07-18T01:12:55.994Z,99.90
2023-07-18T01:15:27.395Z,99.90
2023-07-18T01:17:56.671Z,99.90
2023-07-18T01:20:29.348Z,99.90
2023-07-18T01:23:00.919Z,99.90
2023-07-18T01:25:31.219Z,99.90
2023-07-18T01:28:01.964Z,99.90
2023-07-18T01:30:32.059Z,99.90
2023-07-18T01:33:01.223Z,99.90
2023-07-18T01:35:30.618Z,99.90
2023-07-18T01:38:01.208Z,99.90
2023-07-18T01:40:30.298Z,99.90
2023-07-18T01:43:00.180Z,99.90
2023-07-18T01:45:30.218Z,99.90
2023-07-18T01:47:59.504Z,99.90
2023-07-18T01:50:28.645Z,99.90
2023-07-18T01:53:00.198Z,99.90
2023-07-18T01:55:30.416Z,99.90
2023-07-18T01:58:02.719Z,99.90
2023-07-18T02:00:33.869Z,99.90
2023-07-18T02:03:02.630Z,99.90
2023-07-18T02:05:32.522Z,99.90
2023-07-18T02:08:02.787Z,99.90
2023-07-18T02:10:32.571Z,99.90
2023-07-18T02:13:04.276Z,99.90
2023-07-18T02:15:33.861Z,99.90
2023-07-18T02:18:02.733Z,99.90
2023-07-18T02:20:31.986Z,99.90
2023-07-18T02:23:04.034Z,99.90
2023-07-18T02:25:32.853Z,99.90
2023-07-18T02:28:01.670Z,99.90
2023-07-18T02:30:34.855Z,99.90
2023-07-18T02:33:06.026Z,99.90
2023-07-18T02:35:35.265Z,99.90
2023-07-18T02:38:05.554Z,99.90
2023-07-18T02:40:34.423Z,99.90
2023-07-18T02:43:03.104Z,99.90
2023-07-18T02:45:32.080Z,99.90
2023-07-18T02:48:01.742Z,99.90
2023-07-18T02:50:30.980Z,99.90
2023-07-18T02:53:00.968Z,99.90
2023-07-18T02:55:31.251Z,99.90
2023-07-18T02:58:00.053Z,99.90
2023-07-18T03:00:29.844Z,99.90
2023-07-18T03:02:58.911Z,99.90
2023-07-18T03:05:28.585Z,99.90
2023-07-18T03:07:58.491Z,99.90
2023-07-18T03:10:27.487Z,99.90
2023-07-18T03:12:58.023Z,99.90
2023-07-18T03:15:26.892Z,99.90
2023-07-18T03:17:56.196Z,99.90
2023-07-18T03:20:25.519Z,99.90
2023-07-18T03:22:54.518Z,99.90
2023-07-18T03:25:24.195Z,99.90
2023-07-18T03:27:53.662Z,99.90
2023-07-18T03:30:24.101Z,99.90
2023-07-18T03:32:52.953Z,99.90
2023-07-18T03:35:22.865Z,99.90
2023-07-18T03:37:51.692Z,99.90
2023-07-18T03:40:20.906Z,99.90
2023-07-18T03:42:49.989Z,99.90
2023-07-18T03:45:19.380Z,99.90
2023-07-18T03:47:49.839Z,99.90
2023-07-18T03:50:19.701Z,99.90
2023-07-18T03:52:48.776Z,99.90
2023-07-18T03:55:17.697Z,99.90
2023-07-18T03:57:47.142Z,99.90
2023-07-18T04:00:19.214Z,99.90
2023-07-18T04:02:51.340Z,99.90
2023-07-18T04:05:21.367Z,99.90
2023-07-18T04:07:50.328Z,99.90
2023-07-18T04:10:19.371Z,99.90
2023-07-18T04:12:48.257Z,99.90
2023-07-18T04:15:17.828Z,99.90
2023-07-18T04:17:46.895Z,99.90
2023-07-18T04:20:20.908Z,99.90
2023-07-18T04:22:50.184Z,99.90
2023-07-18T04:25:19.196Z,99.90
2023-07-18T04:27:48.718Z,99.90
2023-07-18T04:30:17.532Z,99.90
2023-07-18T04:32:48.008Z,99.90
2023-07-18T04:35:19.057Z,99.90
2023-07-18T04:37:48.023Z,99.90
2023-07-18T04:40:17.259Z,99.90
2023-07-18T04:42:46.182Z,99.90
2023-07-18T04:45:16.016Z,99.90
2023-07-18T04:47:44.887Z,99.90
2023-07-18T04:50:14.238Z,99.90
2023-07-18T04:52:44.448Z,99.90
2023-07-18T04:55:13.482Z,99.90
2023-07-18T04:57:42.395Z,99.90
2023-07-18T05:00:14.291Z,99.90
2023-07-18T05:02:45.939Z,99.90
2023-07-18T05:05:16.190Z,99.90
2023-07-18T05:07:48.272Z,99.90
2023-07-18T05:10:17.628Z,99.90
2023-07-18T05:12:46.526Z,99.90
2023-07-18T05:15:16.245Z,99.90
2023-07-18T05:17:45.194Z,99.90
2023-07-18T05:20:15.605Z,99.90
2023-07-18T05:22:47.048Z,99.90
2023-07-18T05:25:19.420Z,99.90
2023-07-18T05:27:47.976Z,99.90
2023-07-18T05:30:18.730Z,99.90
2023-07-18T05:32:49.042Z,99.90
2023-07-18T05:35:18.155Z,99.90
2023-07-18T05:37:51.272Z,99.90
2023-07-18T05:40:22.652Z,99.90
2023-07-18T05:42:51.783Z,99.90
2023-07-18T05:45:20.909Z,99.90
2023-07-18T05:47:49.923Z,99.90
2023-07-18T05:50:19.992Z,99.90
2023-07-18T05:52:50.447Z,99.90
2023-07-18T05:55:19.544Z,99.90
2023-07-18T05:57:48.505Z,99.90
2023-07-18T06:00:18.451Z,99.90
2023-07-18T06:02:49.153Z,99.90
2023-07-18T06:05:18.868Z,99.90
2023-07-18T06:07:49.239Z,99.90
2023-07-18T06:10:18.629Z,99.90
2023-07-18T06:12:47.554Z,99.90
2023-07-18T06:15:17.165Z,99.90
2023-07-18T06:17:46.098Z,99.90
2023-07-18T06:20:15.402Z,99.90
2023-07-18T06:22:46.017Z,99.90
2023-07-18T06:25:18.384Z,99.90
2023-07-18T06:27:47.261Z,99.90
2023-07-18T06:30:19.397Z,99.90
2023-07-18T06:32:48.120Z,99.90
2023-07-18T06:35:23.589Z,99.90
2023-07-18T06:37:53.417Z,99.90
2023-07-18T06:40:23.848Z,99.90
2023-07-18T06:42:52.719Z,99.90
2023-07-18T06:45:21.757Z,99.90
2023-07-18T06:47:50.612Z,99.90
2023-07-18T06:50:19.754Z,99.90
2023-07-18T06:52:48.788Z,99.90
2023-07-18T06:55:18.198Z,99.90
2023-07-18T06:57:48.479Z,99.90
2023-07-18T07:00:21.129Z,99.90
2023-07-18T07:02:50.097Z,99.90
2023-07-18T07:05:19.993Z,99.90
2023-07-18T07:07:50.664Z,99.90
2023-07-18T07:10:19.999Z,99.90
2023-07-18T07:12:50.768Z,99.90
2023-07-18T07:15:19.841Z,99.90
2023-07-18T07:17:48.794Z,99.90
2023-07-18T07:20:20.484Z,99.90
2023-07-18T07:22:49.359Z,99.90
2023-07-18T07:25:18.361Z,99.90
2023-07-18T07:27:47.439Z,99.90
2023-07-18T07:30:18.090Z,99.90
2023-07-18T07:32:49.090Z,99.90
2023-07-18T07:35:19.538Z,99.90
2023-07-18T07:37:48.615Z,99.90
2023-07-18T07:40:22.052Z,99.90
2023-07-18T07:42:50.845Z,99.90
2023-07-18T07:45:22.299Z,99.90
2023-07-18T07:47:51.473Z,99.90
2023-07-18T07:50:20.759Z,99.90
2023-07-18T07:52:49.807Z,99.90
2023-07-18T07:55:19.835Z,99.90
2023-07-18T07:57:49.137Z,99.90
2023-07-18T08:00:20.397Z,99.90
2023-07-18T08:02:51.142Z,99.90
2023-07-18T08:05:22.249Z,99.90
2023-07-18T08:07:51.285Z,99.90
2023-07-18T08:10:20.881Z,99.90
2023-07-18T08:12:49.691Z,99.90
2023-07-18T08:15:22.324Z,99.90
2023-07-18T08:17:54.181Z,99.90
2023-07-18T08:20:23.367Z,99.90
2023-07-18T08:22:52.566Z,99.90
2023-07-18T08:25:22.646Z,99.90
2023-07-18T08:27:51.593Z,99.90
2023-07-18T08:30:21.494Z,99.40
2023-07-18T08:32:50.563Z,98.60
2023-07-18T08:35:21.803Z,98.40
2023-07-18T08:37:50.950Z,97.70
2023-07-18T08:40:21.050Z,96.50
2023-07-18T08:42:51.390Z,97.10
2023-07-18T08:45:22.041Z,95.00
2023-07-18T08:47:57.546Z,95.10
2023-07-18T08:50:30.405Z,95.10
2023-07-18T08:52:59.508Z,94.00
2023-07-18T08:55:30.864Z,92.40
2023-07-18T08:58:00.168Z,91.70
2023-07-18T09:00:29.424Z,91.00
2023-07-18T09:02:59.474Z,91.70
2023-07-18T09:05:34.761Z,90.70
2023-07-18T09:08:05.173Z,90.70
2023-07-18T09:10:35.096Z,90.90
2023-07-18T09:13:05.641Z,91.00
2023-07-18T09:15:36.392Z,91.40
2023-07-18T09:18:06.964Z,91.40
2023-07-18T09:20:39.760Z,91.60
2023-07-18T09:23:08.732Z,91.10
2023-07-18T09:25:41.222Z,90.10
2023-07-18T09:28:13.470Z,89.10
2023-07-18T09:30:42.243Z,89.60
2023-07-18T09:33:11.177Z,90.60
2023-07-18T09:35:42.217Z,91.90
2023-07-18T09:38:25.063Z,91.70
2023-07-18T09:40:58.643Z,91.30
2023-07-18T09:43:31.465Z,91.10
2023-07-18T09:46:00.981Z,91.30
2023-07-18T09:51:22.072Z,89.60
2023-07-18T09:53:51.424Z,89.10
2023-07-18T09:56:20.479Z,87.60
2023-07-18T09:58:49.499Z,89.10
2023-07-18T10:01:21.958Z,88.50
2023-07-18T10:03:54.256Z,90.10
2023-07-18T10:06:25.479Z,89.90
2023-07-18T10:08:56.487Z,89.20
2023-07-18T10:11:25.544Z,87.40
2023-07-18T10:14:13.900Z,87.60
2023-07-18T10:16:45.184Z,90.80
2023-07-18T10:19:20.077Z,91.10
2023-07-18T10:21:54.507Z,91.70
2023-07-18T10:24:29.948Z,92.50
2023-07-18T10:27:00.972Z,91.90
2023-07-18T10:29:34.394Z,92.20
2023-07-18T10:32:06.289Z,92.50
2023-07-18T10:34:39.537Z,93.00
2023-07-18T10:37:10.413Z,93.90
2023-07-18T10:39:41.392Z,93.50
2023-07-18T10:42:12.530Z,93.40
2023-07-18T10:44:41.801Z,94.10
2023-07-18T10:47:15.637Z,92.90
2023-07-18T10:49:46.280Z,92.90
2023-07-18T10:52:18.239Z,92.70
2023-07-18T10:54:48.216Z,92.30
2023-07-18T10:57:17.575Z,91.90
2023-07-18T10:59:47.231Z,92.50
2023-07-18T11:02:17.050Z,91.70
2023-07-18T11:04:47.280Z,91.30
2023-07-18T11:07:19.027Z,91.90
2023-07-18T11:09:48.276Z,91.70
2023-07-18T11:12:21.066Z,90.80
2023-07-18T11:14:50.150Z,91.40
2023-07-18T11:17:19.867Z,90.60
2023-07-18T11:19:49.873Z,90.00
2023-07-18T11:22:20.822Z,90.30
2023-07-18T11:24:50.099Z,90.80
2023-07-18T11:27:20.674Z,91.10
2023-07-18T11:29:57.520Z,92.10
2023-07-18T11:32:39.457Z,91.50
2023-07-18T11:35:12.463Z,91.90
2023-07-18T11:37:44.166Z,91.80
2023-07-18T11:40:19.955Z,92.60
2023-07-18T11:42:51.039Z,91.90
2023-07-18T11:45:22.084Z,92.10
2023-07-18T11:47:54.313Z,92.20
2023-07-18T11:50:25.054Z,92.70
2023-07-18T11:52:56.889Z,92.60
2023-07-18T11:55:25.683Z,92.10
2023-07-18T11:57:55.093Z,92.40
2023-07-18T12:00:25.051Z,92.30
2023-07-18T12:02:54.105Z,91.80
2023-07-18T12:05:25.668Z,91.90
2023-07-18T12:07:56.401Z,90.70
2023-07-18T12:10:26.458Z,90.50
2023-07-18T12:12:55.540Z,91.20
2023-07-18T12:15:24.562Z,90.50
2023-07-18T12:17:53.721Z,90.50
2023-07-18T12:20:25.982Z,90.40
2023-07-18T12:22:56.416Z,89.20
2023-07-18T12:25:26.037Z,87.60
2023-07-18T12:27:54.994Z,88.70
2023-07-18T12:30:23.860Z,90.10
2023-07-18T12:32:52.875Z,88.50
2023-07-18T12:35:22.109Z,89.40
2023-07-18T12:37:51.418Z,87.60
2023-07-18T12:40:21.745Z,88.80
2023-07-18T12:42:50.912Z,89.90
2023-07-18T12:45:20.245Z,89.50
2023-07-18T12:47:49.359Z,89.10
2023-07-18T12:50:18.893Z,89.50
2023-07-18T12:52:47.784Z,89.50
2023-07-18T12:55:17.357Z,88.10
2023-07-18T12:57:49.452Z,87.70
2023-07-18T13:00:19.529Z,85.80
2023-07-18T13:02:48.473Z,86.40
2023-07-18T13:05:18.150Z,85.20
2023-07-18T13:07:47.079Z,85.40
2023-07-18T13:10:16.231Z,82.80
2023-07-18T13:12:45.266Z,82.60
2023-07-18T13:15:16.574Z,83.00
2023-07-18T13:17:46.244Z,84.10
2023-07-18T13:20:17.194Z,85.20
2023-07-18T13:22:47.453Z,84.80
2023-07-18T13:25:16.791Z,84.00
2023-07-18T13:27:46.478Z,81.30
2023-07-18T13:30:17.896Z,83.10
2023-07-18T13:32:48.675Z,82.60
2023-07-18T13:35:18.116Z,85.00
2023-07-18T13:37:47.104Z,85.70
2023-07-18T13:40:16.682Z,83.80
2023-07-18T13:42:45.684Z,83.20
2023-07-18T13:45:16.904Z,82.00
2023-07-18T13:47:45.848Z,79.30
2023-07-18T13:50:30.553Z,78.80
2023-07-18T13:53:00.194Z,80.30
2023-07-18T13:55:29.513Z,81.30
2023-07-18T13:57:58.346Z,78.70
2023-07-18T14:00:28.637Z,79.40
2023-07-18T14:02:57.665Z,78.00
2023-07-18T14:05:29.410Z,75.30
2023-07-18T14:07:59.458Z,77.40
2023-07-18T14:10:28.462Z,76.70
2023-07-18T14:12:57.392Z,77.70
2023-07-18T14:15:26.314Z,80.00
2023-07-18T14:17:56.686Z,77.80
2023-07-18T14:20:25.767Z,78.00
2023-07-18T14:22:55.514Z,78.10
2023-07-18T14:25:25.007Z,77.60
2023-07-18T14:27:54.463Z,77.70
2023-07-18T14:30:24.170Z,77.90
2023-07-18T14:32:53.081Z,77.50
2023-07-18T14:35:25.270Z,76.80
2023-07-18T14:37:54.168Z,78.00
2023-07-18T14:40:23.000Z,77.30
2023-07-18T14:42:51.824Z,76.80
2023-07-18T14:45:21.597Z,75.50
2023-07-18T14:47:50.673Z,77.20
2023-07-18T14:50:24.642Z,78.10
2023-07-18T14:52:55.690Z,77.20
2023-07-18T14:55:24.646Z,74.30
2023-07-18T14:57:53.905Z,75.40
2023-07-18T15:00:27.951Z,75.80
2023-07-18T15:02:56.988Z,74.80
2023-07-18T15:05:28.158Z,73.50
2023-07-18T15:07:58.540Z,72.80
2023-07-18T15:10:27.611Z,72.40
2023-07-18T15:12:56.898Z,69.50
2023-07-18T15:15:28.527Z,69.90
2023-07-18T15:17:57.921Z,69.60
2023-07-18T15:20:26.993Z,69.20
2023-07-18T15:22:57.332Z,68.20
2023-07-18T15:25:26.170Z,69.00
2023-07-18T15:27:54.962Z,69.60
2023-07-18T15:30:23.944Z,70.00
2023-07-18T15:32:52.837Z,70.00
2023-07-18T15:35:22.180Z,69.70
2023-07-18T15:37:51.121Z,67.90
2023-07-18T15:40:21.411Z,67.30
2023-07-18T15:42:50.311Z,67.20
2023-07-18T15:45:19.291Z,67.90
2023-07-18T15:47:48.515Z,67.40
2023-07-18T15:50:17.595Z,66.40
2023-07-18T15:52:46.475Z,67.00
2023-07-18T15:55:17.487Z,66.20
2023-07-18T15:57:47.694Z,66.50
2023-07-18T16:00:17.669Z,66.90
2023-07-18T16:02:46.543Z,65.80
2023-07-18T16:05:16.907Z,65.00
2023-07-18T16:07:45.675Z,65.60
2023-07-18T16:10:14.810Z,64.30
2023-07-18T16:12:43.737Z,63.00
2023-07-18T16:15:14.905Z,61.40
2023-07-18T16:17:43.920Z,60.60
2023-07-18T16:20:14.619Z,59.20
2023-07-18T16:22:49.686Z,58.30
2023-07-18T16:25:18.496Z,56.10
2023-07-18T16:27:49.798Z,52.90
2023-07-18T16:30:20.504Z,51.70
2023-07-18T16:32:49.446Z,51.60
2023-07-18T16:35:18.617Z,50.30
2023-07-18T16:37:47.445Z,49.60
2023-07-18T16:40:18.452Z,50.10
2023-07-18T16:42:47.450Z,50.00
2023-07-18T16:45:21.205Z,49.00
2023-07-18T16:47:50.098Z,48.80
2023-07-18T16:50:19.058Z,48.00
2023-07-18T16:52:48.056Z,47.20
2023-07-18T16:55:17.019Z,47.20
2023-07-18T16:57:45.696Z,47.10
2023-07-18T17:00:16.279Z,46.30
2023-07-18T17:02:46.541Z,47.10
2023-07-18T17:05:19.336Z,47.70
2023-07-18T17:07:48.188Z,48.50
2023-07-18T17:10:17.311Z,48.90
2023-07-18T17:12:46.156Z,48.90
2023-07-18T17:15:15.858Z,49.50
2023-07-18T17:17:46.392Z,49.40
2023-07-18T17:20:15.602Z,48.80
2023-07-18T17:22:44.532Z,48.50
2023-07-18T17:25:13.882Z,48.20
2023-07-18T17:27:42.811Z,47.40
2023-07-18T17:30:15.498Z,47.90
2023-07-18T17:32:44.785Z,47.90
2023-07-18T17:35:15.389Z,47.80
2023-07-18T17:37:47.133Z,47.70
2023-07-18T17:40:17.034Z,47.80
2023-07-18T17:42:47.919Z,47.80
2023-07-18T17:45:16.969Z,47.80
2023-07-18T17:47:48.180Z,48.10
2023-07-18T17:50:20.168Z,48.20
2023-07-18T17:52:49.035Z,48.60
2023-07-18T17:55:18.596Z,48.50
2023-07-18T17:57:47.559Z,49.40
2023-07-18T18:00:18.841Z,50.90
2023-07-18T18:02:48.071Z,52.30
2023-07-18T18:05:45.185Z,53.50
2023-07-18T18:08:15.115Z,54.60
2023-07-18T18:10:45.429Z,55.10
2023-07-18T18:13:14.640Z,55.80
2023-07-18T18:16:00.911Z,57.00
2023-07-18T18:18:32.729Z,58.00
2023-07-18T18:21:04.092Z,58.40
2023-07-18T18:26:05.406Z,59.70
2023-07-18T18:28:34.321Z,61.10
2023-07-18T18:31:03.553Z,61.80
2023-07-18T18:33:32.951Z,61.60
2023-07-18T18:36:03.425Z,61.90
2023-07-18T18:38:32.397Z,62.20
2023-07-18T18:41:04.265Z,63.60
2023-07-18T18:43:34.252Z,64.50
2023-07-18T18:46:03.405Z,66.00
2023-07-18T18:48:32.233Z,67.20
2023-07-18T18:51:03.702Z,68.70
2023-07-18T18:53:32.573Z,68.90
2023-07-18T18:56:01.569Z,70.60
2023-07-18T18:58:30.662Z,71.10
2023-07-18T19:01:01.115Z,71.70
2023-07-18T19:03:30.376Z,72.70
2023-07-18T19:05:59.356Z,73.80
2023-07-18T19:08:29.635Z,74.70
2023-07-18T19:11:07.133Z,76.30
2023-07-18T19:13:37.392Z,76.80
2023-07-18T19:16:07.875Z,76.60
2023-07-18T19:18:37.287Z,76.30
2023-07-18T19:21:06.394Z,77.90
2023-07-18T19:23:36.756Z,78.30
2023-07-18T19:26:05.710Z,79.90
2023-07-18T19:28:34.665Z,79.40
2023-07-18T19:31:04.303Z,79.80
2023-07-18T19:33:33.364Z,82.30
2023-07-18T19:36:02.446Z,84.70
2023-07-18T19:38:31.921Z,86.50
2023-07-18T19:41:02.132Z,88.20
2023-07-18T19:43:32.612Z,89.80
2023-07-18T19:46:01.572Z,90.90
2023-07-18T19:48:30.698Z,91.50
2023-07-18T19:50:59.479Z,91.80
2023-07-18T19:53:28.300Z,92.10
2023-07-18T19:55:58.117Z,92.50
2023-07-18T19:58:29.740Z,92.90
2023-07-18T20:00:58.617Z,93.20
2023-07-18T20:03:27.494Z,93.60
2023-07-18T20:05:56.754Z,93.80
2023-07-18T20:08:25.628Z,94.80
2023-07-18T20:10:54.590Z,95.20
2023-07-18T20:13:24.045Z,95.20
2023-07-18T20:15:54.764Z,95.60
2023-07-18T20:18:23.488Z,96.10
2023-07-18T20:20:52.374Z,96.90
2023-07-18T20:23:21.998Z,97.70
2023-07-18T20:25:50.765Z,97.90
2023-07-18T20:28:19.481Z,98.30
2023-07-18T20:30:49.497Z,98.70
2023-07-18T20:33:19.781Z,99.10
2023-07-18T20:35:48.827Z,98.80
2023-07-18T20:38:17.647Z,98.30
2023-07-18T20:40:47.039Z,98.50
2023-07-18T20:43:15.807Z,99.20
2023-07-18T20:45:57.444Z,99.70
2023-07-18T20:48:29.455Z,99.90
2023-07-18T20:50:58.673Z,99.90
2023-07-18T20:53:28.463Z,99.90
2023-07-18T20:55:58.105Z,99.90
2023-07-18T20:58:26.972Z,99.90
2023-07-18T21:00:55.814Z,99.90
2023-07-18T21:03:25.134Z,99.90
2023-07-18T21:05:55.463Z,99.90
2023-07-18T21:08:24.503Z,99.90
2023-07-18T21:10:53.280Z,99.90
2023-07-18T21:13:22.149Z,99.90
2023-07-18T21:15:51.022Z,99.90
2023-07-18T21:18:19.844Z,99.90
2023-07-18T21:20:48.978Z,99.90
2023-07-18T21:23:19.290Z,99.90
2023-07-18T21:25:48.341Z,99.90
2023-07-18T21:28:17.186Z,99.90
2023-07-18T21:30:46.112Z,99.90
2023-07-18T21:33:15.039Z,99.90
2023-07-18T21:35:44.350Z,99.90
2023-07-18T21:38:13.237Z,99.90
2023-07-18T21:40:43.449Z,99.90
2023-07-18T21:43:12.482Z,99.90
2023-07-18T21:45:41.454Z,99.90
2023-07-18T21:48:10.302Z,99.90
2023-07-18T21:50:40.164Z,99.90
2023-07-18T21:53:09.011Z,99.90
2023-07-18T21:55:37.883Z,99.90
2023-07-18T21:58:08.186Z,99.90
2023-07-18T22:00:37.333Z,99.90
2023-07-18T22:03:06.854Z,99.90
2023-07-18T22:05:35.768Z,99.90
2023-07-18T22:08:04.703Z,99.90
2023-07-18T22:10:33.724Z,99.90
2023-07-18T22:13:03.727Z,99.90
2023-07-18T22:15:34.016Z,99.90
2023-07-18T22:18:12.372Z,99.90
2023-07-18T22:20:49.387Z,99.90
2023-07-18T22:23:18.113Z,99.90
2023-07-18T22:25:52.875Z,99.90
2023-07-18T22:28:29.399Z,99.90
2023-07-18T22:30:59.743Z,99.90
2023-07-18T22:33:28.740Z,99.90
2023-07-18T22:35:57.660Z,99.90
2023-07-18T22:38:26.523Z,99.90
2023-07-18T22:40:55.370Z,99.90
2023-07-18T22:43:24.646Z,99.90
2023-07-18T22:45:53.471Z,99.90
2023-07-18T22:48:23.726Z,99.90
2023-07-18T22:50:53.354Z,99.90
2023-07-18T22:53:22.420Z,99.90
2023-07-18T22:55:51.777Z,99.90
2023-07-18T22:58:20.705Z,99.90
2023-07-18T23:00:49.460Z,99.90
2023-07-18T23:03:18.497Z,99.90
2023-07-18T23:05:48.768Z,99.90
2023-07-18T23:08:17.674Z,99.90
2023-07-18T23:10:46.685Z,99.90
2023-07-18T23:13:16.575Z,99.90
2023-07-18T23:15:45.523Z,99.90
2023-07-18T23:18:14.411Z,99.90
2023-07-18T23:20:43.161Z,99.90
2023-07-18T23:23:13.494Z,99.90
2023-07-18T23:25:42.485Z,99.90
2023-07-18T23:28:11.342Z,99.90
2023-07-18T23:30:43.949Z,99.90
2023-07-18T23:33:12.982Z,99.90
2023-07-18T23:35:41.771Z,99.90
2023-07-18T23:38:12.141Z,99.90
2023-07-18T23:40:40.952Z,99.90
2023-07-18T23:43:10.042Z,99.90
2023-07-18T23:45:39.394Z,99.90
2023-07-18T23:48:08.479Z,99.90
2023-07-18T23:50:37.343Z,99.90
2023-07-18T23:53:06.202Z,99.90
2023-07-18T23:55:36.430Z,99.90
2023-07-18T23:58:05.382Z,99.90
